Burlington Flats, New York
Current Conditions -  °F | °C
As of 6:53 PM on Friday 24 Oct 2014 (Local Time) from KRME Reporting Station
Clear Clear  
Wind Chill: 50°   Ceiling: Unl
Heat Index: 50°   Visibility: 10mi
Dew Point: 41°   Wind: 8mph
Humidity: 71%   Direction: 300°WNW
Pressure: 29.9"   Gusts: NA
Location:  42.75°N, 75.18°W
Report Text: KRME 242253Z 30007KT 10SM CLR 10/05 A2990 RMK AO2 SLP126 T01000050
Loading
Personal Weather Stations






























Interactive Weather Map
Tropical Storm Tracking
New forecast layout! Learn more

10-Day Weather Forecast

Advertisements
Track Severe Weather on mobile